Terminal Aerodrome Forecast
Issued by NWS

Home | Current Version | Previous Version | Text Only | Print | Product List | Glossary On
Versions: 1 2 3 4 5 6 7 8 9 10 11 12 13 14 15 16
141
FTUS43 KIWX 162331
TAFSBN
TAF
KSBN 162331Z 1700/1724 12009KT 1/2SM RA FG OVC003
      TEMPO 1701/1704 1/4SM FG
     FM170400 12010KT 1/2SM RA FG OVC003 WS020/19040KT
     FM170800 16007KT 1/2SM RA FG OVC003 WS020/19040KT
     FM171100 21007KT 1SM RA BR OVC003
     FM171600 24009KT 4SM BR OVC008=

USA.gov is the U.S. government's official web portal to all federal, state and local government web resources and services.